createdAt,value
2023-04-13T00:03:23.665Z,12.43
2023-04-13T00:08:22.226Z,12.63
2023-04-13T00:13:19.159Z,12.15
2023-04-13T00:18:16.057Z,12.17
2023-04-13T00:23:13.488Z,12.46
2023-04-13T00:28:11.286Z,12.43
2023-04-13T00:33:08.232Z,12.27
2023-04-13T00:38:05.391Z,12.00
2023-04-13T00:43:04.970Z,11.75
2023-04-13T00:48:02.456Z,11.46
2023-04-13T00:53:00.430Z,11.92
2023-04-13T00:57:58.822Z,11.68
2023-04-13T01:02:56.473Z,11.22
2023-04-13T01:08:08.546Z,11.43
2023-04-13T01:13:15.248Z,11.13
2023-04-13T01:18:22.091Z,11.39
2023-04-13T01:23:30.628Z,11.26
2023-04-13T01:28:32.743Z,11.24
2023-04-13T01:33:30.415Z,10.78
2023-04-13T01:38:28.292Z,11.18
2023-04-13T01:43:28.108Z,10.68
2023-04-13T01:48:42.633Z,10.65
2023-04-13T01:54:07.260Z,10.92
2023-04-13T01:59:05.517Z,10.97
2023-04-13T02:04:04.772Z,10.92
2023-04-13T02:09:05.837Z,10.90
2023-04-13T02:14:03.489Z,10.43
2023-04-13T02:19:01.224Z,10.60
2023-04-13T02:23:59.371Z,10.69
2023-04-13T02:28:56.460Z,10.50
2023-04-13T02:33:53.268Z,10.94
2023-04-13T02:38:50.221Z,10.96
2023-04-13T02:44:03.081Z,10.82
2023-04-13T02:49:10.092Z,10.88
2023-04-13T02:54:14.159Z,10.71
2023-04-13T02:59:16.881Z,10.63
2023-04-13T03:04:14.786Z,10.70
2023-04-13T03:09:12.114Z,10.94
2023-04-13T03:14:21.481Z,10.89
2023-04-13T03:19:24.858Z,10.68
2023-04-13T03:24:21.850Z,10.59
2023-04-13T03:29:19.368Z,10.28
2023-04-13T03:34:16.253Z,10.51
2023-04-13T03:39:15.947Z,10.57
2023-04-13T03:44:13.361Z,10.56
2023-04-13T03:49:10.825Z,10.38
2023-04-13T03:54:08.733Z,10.14
2023-04-13T03:59:06.846Z,10.37
2023-04-13T04:04:04.308Z,10.63
2023-04-13T04:09:01.590Z,10.55
2023-04-13T04:14:07.140Z,10.33
2023-04-13T04:19:04.744Z,10.47
2023-04-13T04:24:02.174Z,10.60
2023-04-13T04:29:01.644Z,10.68
2023-04-13T04:34:00.797Z,10.40
2023-04-13T04:39:01.513Z,11.03
2023-04-13T04:44:07.616Z,10.84
2023-04-13T04:49:09.534Z,11.10
2023-04-13T04:54:07.523Z,11.48
2023-04-13T04:59:04.754Z,11.60
2023-04-13T05:04:12.141Z,11.43
2023-04-13T05:09:11.243Z,11.91
2023-04-13T05:14:11.786Z,12.33
2023-04-13T05:19:09.887Z,12.74
2023-04-13T05:24:20.268Z,14.40
2023-04-13T05:29:18.039Z,16.26
2023-04-13T05:34:16.190Z,18.96
2023-04-13T05:39:26.604Z,21.12
2023-04-13T05:44:23.511Z,23.89
2023-04-13T05:49:22.404Z,25.90
2023-04-13T05:54:19.404Z,27.33
2023-04-13T05:59:19.870Z,28.48
2023-04-13T06:04:17.707Z,29.44
2023-04-13T06:09:15.070Z,30.92
2023-04-13T06:14:15.950Z,31.86
2023-04-13T06:19:13.653Z,33.10
2023-04-13T06:24:10.644Z,33.82
2023-04-13T06:29:08.469Z,34.31
2023-04-13T06:34:29.021Z,34.71
2023-04-13T06:39:28.331Z,35.18
2023-04-13T06:44:29.399Z,35.83
2023-04-13T06:49:31.992Z,36.33
2023-04-13T06:54:31.233Z,36.57
2023-04-13T06:59:36.133Z,36.58
2023-04-13T07:04:34.163Z,36.90
2023-04-13T07:09:33.837Z,37.58
2023-04-13T07:14:35.878Z,37.78
2023-04-13T07:19:38.779Z,37.93
2023-04-13T07:24:36.365Z,38.15
2023-04-13T07:29:37.845Z,38.34
2023-04-13T07:34:43.165Z,38.47
2023-04-13T07:39:40.965Z,38.80
2023-04-13T07:44:41.294Z,38.40
2023-04-13T07:49:38.816Z,38.93
2023-04-13T07:54:43.034Z,38.77
2023-04-13T07:59:41.716Z,38.74
2023-04-13T08:04:39.455Z,38.91
2023-04-13T08:09:41.554Z,39.25
2023-04-13T08:14:38.966Z,38.81
2023-04-13T08:19:38.262Z,38.73
2023-04-13T08:24:36.644Z,38.83
2023-04-13T08:29:34.536Z,38.98
2023-04-13T08:34:32.247Z,38.94
2023-04-13T08:39:29.336Z,39.00
2023-04-13T08:44:39.385Z,38.66
2023-04-13T08:49:38.274Z,38.55
2023-04-13T08:54:46.925Z,38.59
2023-04-13T08:59:54.691Z,38.51
2023-04-13T09:04:54.698Z,38.42
2023-04-13T09:10:07.646Z,38.44
2023-04-13T09:15:07.233Z,38.41
2023-04-13T09:20:13.308Z,38.19
2023-04-13T09:25:20.945Z,37.62
2023-04-13T09:30:21.056Z,37.40
2023-04-13T09:35:18.138Z,36.77
2023-04-13T09:40:18.157Z,37.11
2023-04-13T09:45:15.823Z,37.15
2023-04-13T09:50:23.056Z,37.13
2023-04-13T09:55:19.954Z,36.78
2023-04-13T10:00:20.140Z,36.70
2023-04-13T10:05:18.343Z,36.55
2023-04-13T10:10:16.454Z,36.46
2023-04-13T10:15:24.366Z,36.05
2023-04-13T10:20:27.963Z,35.42
2023-04-13T10:25:33.157Z,35.57
2023-04-13T10:30:31.722Z,35.00
2023-04-13T10:35:29.235Z,35.10
2023-04-13T10:40:26.776Z,34.05
2023-04-13T10:45:25.967Z,33.14
2023-04-13T10:50:24.663Z,32.42
2023-04-13T10:55:23.660Z,31.91
2023-04-13T11:00:22.141Z,31.27
2023-04-13T11:05:24.924Z,30.43
2023-04-13T11:10:26.102Z,29.75
2023-04-13T11:15:26.305Z,29.26
2023-04-13T11:20:32.895Z,28.25
2023-04-13T11:25:29.961Z,28.02
2023-04-13T11:30:28.041Z,27.22
2023-04-13T11:35:24.866Z,26.72
2023-04-13T11:40:23.574Z,26.65
2023-04-13T11:45:22.775Z,26.25
2023-04-13T11:50:21.852Z,25.63
2023-04-13T11:55:23.867Z,25.11
2023-04-13T12:00:23.588Z,25.41
2023-04-13T12:05:22.333Z,25.00
2023-04-13T12:10:25.629Z,25.01
2023-04-13T12:15:43.499Z,24.53
2023-04-13T12:20:47.412Z,24.60
2023-04-13T12:25:55.103Z,24.31
2023-04-13T12:30:52.045Z,24.46
2023-04-13T12:35:49.683Z,24.60
2023-04-13T12:40:46.557Z,24.64
2023-04-13T12:45:43.429Z,24.29
2023-04-13T12:50:42.902Z,24.27
2023-04-13T12:55:42.569Z,24.14
2023-04-13T13:00:39.688Z,24.07
2023-04-13T13:05:38.697Z,23.98
2023-04-13T13:10:36.394Z,23.87
2023-04-13T13:15:34.369Z,23.65
2023-04-13T13:20:31.790Z,23.89
2023-04-13T13:25:31.950Z,23.76
2023-04-13T13:30:30.164Z,23.11
2023-04-13T13:35:33.941Z,22.94
2023-04-13T13:40:30.868Z,23.06
2023-04-13T13:45:27.876Z,23.14
2023-04-13T13:50:25.808Z,23.04
2023-04-13T13:55:24.488Z,22.82
2023-04-13T14:00:22.230Z,22.74
2023-04-13T14:05:21.169Z,22.60
2023-04-13T14:10:18.304Z,22.48
2023-04-13T14:15:16.480Z,22.02
2023-04-13T14:20:13.448Z,22.25
2023-04-13T14:25:10.808Z,22.24
2023-04-13T14:30:08.825Z,21.93
2023-04-13T14:35:06.940Z,22.08
2023-04-13T14:40:08.277Z,22.26
2023-04-13T14:45:07.061Z,22.29
2023-04-13T14:50:05.038Z,22.15
2023-04-13T14:55:03.636Z,22.19
2023-04-13T15:00:01.339Z,22.33
2023-04-13T15:04:58.473Z,22.11
2023-04-13T15:09:55.638Z,22.10
2023-04-13T15:15:02.437Z,21.72
2023-04-13T15:20:02.719Z,21.95
2023-04-13T15:25:00.506Z,21.32
2023-04-13T15:30:09.718Z,21.33
2023-04-13T15:35:07.191Z,21.41
2023-04-13T15:40:07.001Z,21.28
2023-04-13T15:45:11.425Z,21.59
2023-04-13T15:50:09.540Z,21.63
2023-04-13T15:55:07.697Z,21.19
2023-04-13T16:00:07.967Z,21.31
2023-04-13T16:05:05.198Z,20.87
2023-04-13T16:10:02.275Z,20.75
2023-04-13T16:15:02.736Z,20.11
2023-04-13T16:20:17.668Z,20.17
2023-04-13T16:25:16.120Z,20.13
2023-04-13T16:30:16.714Z,19.70
2023-04-13T16:35:15.041Z,19.17
2023-04-13T16:40:13.256Z,19.16
2023-04-13T16:45:14.426Z,18.64
2023-04-13T16:50:14.042Z,18.79
2023-04-13T16:55:15.309Z,18.56
2023-04-13T17:00:18.656Z,18.34
2023-04-13T17:05:27.649Z,18.09
2023-04-13T17:10:25.820Z,18.05
2023-04-13T17:15:22.789Z,17.78
2023-04-13T17:20:19.915Z,18.20
2023-04-13T17:25:21.911Z,17.84
2023-04-13T17:30:21.769Z,17.88
2023-04-13T17:35:19.055Z,17.47
2023-04-13T17:40:16.154Z,17.36
2023-04-13T17:45:14.342Z,16.85
2023-04-13T17:50:14.521Z,17.34
2023-04-13T17:55:11.591Z,17.30
2023-04-13T18:00:09.427Z,17.20
2023-04-13T18:05:08.913Z,17.62
2023-04-13T18:10:07.741Z,17.68
2023-04-13T18:15:05.930Z,17.50
2023-04-13T18:20:02.885Z,17.60
2023-04-13T18:24:59.843Z,17.56
2023-04-13T18:29:57.286Z,17.22
2023-04-13T18:34:54.113Z,17.14
2023-04-13T18:39:51.973Z,17.38
2023-04-13T18:44:48.802Z,17.01
2023-04-13T18:49:47.038Z,17.16
2023-04-13T18:54:43.994Z,16.37
2023-04-13T18:59:40.916Z,16.94
2023-04-13T19:04:38.914Z,16.26
2023-04-13T19:09:36.738Z,16.82
2023-04-13T19:14:34.081Z,16.79
2023-04-13T19:19:30.916Z,16.39
2023-04-13T19:24:27.800Z,16.84
2023-04-13T19:29:29.450Z,16.59
2023-04-13T19:34:26.861Z,16.78
2023-04-13T19:39:23.682Z,16.26
2023-04-13T19:44:20.575Z,16.42
2023-04-13T19:49:18.178Z,16.63
2023-04-13T19:54:15.058Z,16.59
2023-04-13T19:59:12.195Z,15.93
2023-04-13T20:04:10.313Z,16.09
2023-04-13T20:09:09.319Z,16.24
2023-04-13T20:14:06.320Z,16.33
2023-04-13T20:19:04.814Z,16.08
2023-04-13T20:24:03.093Z,16.24
2023-04-13T20:29:03.083Z,15.57
2023-04-13T20:34:03.514Z,15.84
2023-04-13T20:39:00.381Z,16.07
2023-04-13T20:43:58.063Z,16.03
2023-04-13T20:48:56.128Z,15.85
2023-04-13T20:53:52.954Z,15.71
2023-04-13T20:58:49.816Z,15.20
2023-04-13T21:03:47.713Z,15.51
2023-04-13T21:08:54.191Z,14.33
2023-04-13T21:13:50.947Z,14.92
2023-04-13T21:18:48.051Z,14.79
2023-04-13T21:23:45.510Z,14.07
2023-04-13T21:28:42.321Z,14.52
2023-04-13T21:33:39.152Z,14.17
2023-04-13T21:38:38.942Z,14.04
2023-04-13T21:43:36.575Z,14.46
2023-04-13T21:48:33.645Z,14.47
2023-04-13T21:53:32.128Z,13.89
2023-04-13T21:58:36.675Z,13.91
2023-04-13T22:03:36.569Z,13.68
2023-04-13T22:08:33.766Z,13.33
2023-04-13T22:13:30.641Z,13.46
2023-04-13T22:18:29.050Z,13.22
2023-04-13T22:23:26.923Z,13.15
2023-04-13T22:28:24.063Z,13.33
2023-04-13T22:33:20.997Z,13.35
2023-04-13T22:38:17.988Z,13.77
2023-04-13T22:43:15.640Z,13.77
2023-04-13T22:48:12.548Z,13.44
2023-04-13T22:53:09.499Z,12.55
2023-04-13T22:58:06.260Z,12.72
2023-04-13T23:03:04.155Z,12.76
2023-04-13T23:08:01.275Z,12.59
2023-04-13T23:12:58.515Z,12.95
2023-04-13T23:17:55.889Z,12.69
2023-04-13T23:22:53.558Z,12.26
2023-04-13T23:27:50.364Z,12.47
2023-04-13T23:32:47.181Z,12.24
2023-04-13T23:37:44.721Z,12.27
2023-04-13T23:42:42.196Z,12.16
2023-04-13T23:47:39.114Z,12.82
2023-04-13T23:52:35.983Z,12.99
2023-04-13T23:57:33.624Z,12.85
